createdAt,value
2019-03-01T00:00:11.637Z,1007.17
2019-03-01T00:01:11.624Z,1007.20
2019-03-01T00:02:11.604Z,1007.23
2019-03-01T00:03:11.652Z,1007.17
2019-03-01T00:04:11.583Z,1007.23
2019-03-01T00:05:11.570Z,1007.19
2019-03-01T00:06:11.562Z,1007.19
2019-03-01T00:07:11.548Z,1007.25
2019-03-01T00:08:11.539Z,1007.27
2019-03-01T00:09:11.568Z,1007.31
2019-03-01T00:10:11.514Z,1007.39
2019-03-01T00:11:11.498Z,1007.34
2019-03-01T00:12:11.503Z,1007.40
2019-03-01T00:13:11.478Z,1007.43
2019-03-01T00:14:11.497Z,1007.42
2019-03-01T00:15:11.461Z,1007.36
2019-03-01T00:16:11.454Z,1007.36
2019-03-01T00:17:11.437Z,1007.34
2019-03-01T00:18:11.429Z,1007.27
2019-03-01T00:19:11.439Z,1007.32
2019-03-01T00:20:11.414Z,1007.28
2019-03-01T00:21:11.398Z,1007.24
2019-03-01T00:22:11.379Z,1007.24
2019-03-01T00:23:11.374Z,1007.18
2019-03-01T00:24:11.403Z,1007.25
2019-03-01T00:25:11.356Z,1007.22
2019-03-01T00:26:11.345Z,1007.22
2019-03-01T00:27:11.334Z,1007.32
2019-03-01T00:28:11.321Z,1007.31
2019-03-01T00:29:11.329Z,1007.38
2019-03-01T00:30:11.303Z,1007.38
2019-03-01T00:31:11.294Z,1007.42
2019-03-01T00:32:11.279Z,1007.40
2019-03-01T00:33:11.282Z,1007.39
2019-03-01T00:34:11.283Z,1007.33
2019-03-01T00:35:11.253Z,1007.26
2019-03-01T00:36:11.235Z,1007.28
2019-03-01T00:37:11.226Z,1007.24
2019-03-01T00:38:11.214Z,1007.23
2019-03-01T00:39:11.200Z,1007.27
2019-03-01T00:40:11.207Z,1007.25
2019-03-01T00:41:11.185Z,1007.18
2019-03-01T00:42:11.172Z,1007.18
2019-03-01T00:43:11.158Z,1007.17
2019-03-01T00:44:11.154Z,1007.17
2019-03-01T00:45:11.155Z,1007.17
2019-03-01T00:46:11.130Z,1007.11
2019-03-01T00:47:11.119Z,1007.10
2019-03-01T00:48:11.104Z,1007.11
2019-03-01T00:49:11.098Z,1007.04
2019-03-01T00:50:11.113Z,1007.08
2019-03-01T00:51:11.077Z,1007.10
2019-03-01T00:52:11.075Z,1007.07
2019-03-01T00:53:11.054Z,1007.06
2019-03-01T00:54:11.049Z,1007.12
2019-03-01T00:55:11.043Z,1007.08
2019-03-01T00:56:11.023Z,1007.13
2019-03-01T00:57:11.012Z,1007.13
2019-03-01T00:58:11.000Z,1007.14
2019-03-01T00:59:10.991Z,1007.13
2019-03-01T01:00:10.989Z,1007.09
2019-03-01T01:01:10.972Z,1007.11
2019-03-01T01:02:10.964Z,1007.07
2019-03-01T01:03:10.945Z,1007.10
2019-03-01T01:04:10.933Z,1007.07
2019-03-01T01:05:10.944Z,1007.01
2019-03-01T01:06:10.922Z,1007.07
2019-03-01T01:07:10.927Z,1007.03
2019-03-01T01:08:10.905Z,1007.00
2019-03-01T01:09:10.880Z,1006.94
2019-03-01T01:10:10.885Z,1006.99
2019-03-01T01:11:10.870Z,1007.02
2019-03-01T01:12:10.857Z,1006.98
2019-03-01T01:13:10.838Z,1006.95
2019-03-01T01:14:10.834Z,1006.97
2019-03-01T01:15:10.865Z,1006.96
2019-03-01T01:16:10.808Z,1007.04
2019-03-01T01:17:10.796Z,1007.10
2019-03-01T01:18:10.785Z,1007.08
2019-03-01T01:19:10.781Z,1007.09
2019-03-01T01:20:10.775Z,1007.08
2019-03-01T01:21:10.777Z,1007.03
2019-03-01T01:22:10.744Z,1007.06
2019-03-01T01:23:10.745Z,1007.03
2019-03-01T01:24:10.726Z,1006.96
2019-03-01T01:25:10.716Z,1006.96
2019-03-01T01:26:10.717Z,1006.95
2019-03-01T01:27:10.699Z,1006.89
2019-03-01T01:28:10.682Z,1006.91
2019-03-01T01:29:10.673Z,1006.79
2019-03-01T01:30:10.661Z,1006.78
2019-03-01T01:31:10.672Z,1006.76
2019-03-01T01:32:10.656Z,1006.80
2019-03-01T01:33:10.633Z,1006.75
2019-03-01T01:34:10.616Z,1006.76
2019-03-01T01:35:10.608Z,1006.73
2019-03-01T01:36:10.618Z,1006.72
2019-03-01T01:37:10.585Z,1006.72
2019-03-01T01:38:10.580Z,1006.70
2019-03-01T01:39:10.563Z,1006.67
2019-03-01T01:40:10.554Z,1006.60
2019-03-01T01:41:10.566Z,1006.55
2019-03-01T01:42:10.540Z,1006.52
2019-03-01T01:43:10.526Z,1006.46
2019-03-01T01:44:10.511Z,1006.39
2019-03-01T01:45:10.509Z,1006.39
2019-03-01T01:46:10.493Z,1006.32
2019-03-01T01:47:10.500Z,1006.27
2019-03-01T01:48:10.472Z,1006.20
2019-03-01T01:49:10.455Z,1006.17
2019-03-01T01:50:10.454Z,1006.24
2019-03-01T01:51:10.438Z,1006.26
2019-03-01T01:52:10.450Z,1006.28
2019-03-01T01:53:10.418Z,1006.40
2019-03-01T01:54:10.405Z,1006.33
2019-03-01T01:55:10.401Z,1006.36
2019-03-01T01:56:10.387Z,1006.36
2019-03-01T01:57:10.385Z,1006.34
2019-03-01T01:58:10.364Z,1006.35
2019-03-01T01:59:10.357Z,1006.37
2019-03-01T02:00:10.343Z,1006.32
2019-03-01T02:01:10.335Z,1006.28
2019-03-01T02:02:10.336Z,1006.27
2019-03-01T02:03:10.308Z,1006.27
2019-03-01T02:04:10.298Z,1006.30
2019-03-01T02:05:10.289Z,1006.26
2019-03-01T02:06:10.280Z,1006.21
2019-03-01T02:07:10.286Z,1006.21
2019-03-01T02:08:10.257Z,1006.19
2019-03-01T02:09:10.242Z,1006.18
2019-03-01T02:10:10.245Z,1006.19
2019-03-01T02:11:10.226Z,1006.22
2019-03-01T02:12:10.235Z,1006.25
2019-03-01T02:13:10.206Z,1006.25
2019-03-01T02:14:10.193Z,1006.29
2019-03-01T02:15:10.189Z,1006.30
2019-03-01T02:16:10.176Z,1006.34
2019-03-01T02:17:10.185Z,1006.30
2019-03-01T02:18:10.153Z,1006.33
2019-03-01T02:19:10.142Z,1006.32
2019-03-01T02:20:10.135Z,1006.28
2019-03-01T02:21:10.119Z,1006.20
2019-03-01T02:22:10.111Z,1006.20
2019-03-01T02:23:10.120Z,1006.16
2019-03-01T02:24:10.099Z,1006.12
2019-03-01T02:25:10.075Z,1006.08
2019-03-01T02:26:10.071Z,1006.09
2019-03-01T02:27:10.056Z,1006.06
2019-03-01T02:28:10.061Z,1006.05
2019-03-01T02:29:10.033Z,1006.11
2019-03-01T02:30:10.028Z,1006.01
2019-03-01T02:31:10.015Z,1006.08
2019-03-01T02:32:10.002Z,1006.08
2019-03-01T02:33:10.014Z,1006.10
2019-03-01T02:34:09.980Z,1006.08
2019-03-01T02:35:09.977Z,1006.09
2019-03-01T02:36:09.965Z,1006.13
2019-03-01T02:37:09.961Z,1006.12
2019-03-01T02:38:09.961Z,1006.14
2019-03-01T02:39:09.931Z,1006.18
2019-03-01T02:40:09.923Z,1006.20
2019-03-01T02:41:09.931Z,1006.19
2019-03-01T02:42:09.900Z,1006.22
2019-03-01T02:43:09.908Z,1006.20
2019-03-01T02:44:09.877Z,1006.16
2019-03-01T02:45:09.868Z,1006.24
2019-03-01T02:46:09.852Z,1006.15
2019-03-01T02:47:09.849Z,1006.19
2019-03-01T02:48:09.853Z,1006.19
2019-03-01T02:49:09.822Z,1006.17
2019-03-01T02:50:09.814Z,1006.08
2019-03-01T02:51:09.821Z,1006.06
2019-03-01T02:52:09.788Z,1006.02
2019-03-01T02:53:09.794Z,1006.01
2019-03-01T02:54:09.772Z,1006.08
2019-03-01T02:55:09.762Z,1006.04
2019-03-01T02:56:09.761Z,1006.04
2019-03-01T02:57:09.739Z,1006.01
2019-03-01T02:58:09.770Z,1005.98
2019-03-01T02:59:09.714Z,1006.03
2019-03-01T03:00:09.705Z,1006.06
2019-03-01T03:01:09.698Z,1006.03
2019-03-01T03:02:09.684Z,1006.02
2019-03-01T03:03:09.670Z,1006.06
2019-03-01T03:04:09.674Z,1005.98
2019-03-01T03:05:09.656Z,1006.02
2019-03-01T03:06:09.646Z,1006.05
2019-03-01T03:07:09.634Z,1006.05
2019-03-01T03:08:09.620Z,1005.97
2019-03-01T03:09:09.626Z,1005.93
2019-03-01T03:10:09.603Z,1005.96
2019-03-01T03:11:09.601Z,1005.91
2019-03-01T03:12:09.579Z,1005.91
2019-03-01T03:13:09.596Z,1005.89
2019-03-01T03:14:09.590Z,1005.87
2019-03-01T03:15:09.555Z,1005.85
2019-03-01T03:16:09.550Z,1005.88
2019-03-01T03:17:09.525Z,1005.88
2019-03-01T03:18:09.516Z,1005.89
2019-03-01T03:19:09.528Z,1005.88
2019-03-01T03:20:09.500Z,1005.88
2019-03-01T03:21:09.481Z,1005.91
2019-03-01T03:22:09.471Z,1005.93
2019-03-01T03:23:09.466Z,1005.92
2019-03-01T03:24:09.468Z,1005.92
2019-03-01T03:25:09.437Z,1005.89
2019-03-01T03:26:09.427Z,1005.89
2019-03-01T03:27:09.421Z,1005.84
2019-03-01T03:28:09.408Z,1005.87
2019-03-01T03:29:09.429Z,1005.85
2019-03-01T03:30:09.433Z,1005.86
2019-03-01T03:31:09.377Z,1005.84
2019-03-01T03:32:09.367Z,1005.82
2019-03-01T03:33:09.360Z,1005.91
2019-03-01T03:34:09.363Z,1005.88
2019-03-01T03:35:09.341Z,1005.91
2019-03-01T03:36:09.325Z,1005.84
2019-03-01T03:37:09.333Z,1005.82
2019-03-01T03:38:09.302Z,1005.87
2019-03-01T03:39:09.315Z,1005.83
2019-03-01T03:40:09.282Z,1005.87
2019-03-01T03:41:09.276Z,1005.86
2019-03-01T03:42:09.261Z,1005.83
2019-03-01T03:43:09.258Z,1005.81
2019-03-01T03:44:09.240Z,1005.82
2019-03-01T03:45:09.243Z,1005.85
2019-03-01T03:46:09.214Z,1005.88
2019-03-01T03:47:09.207Z,1005.80
2019-03-01T03:48:09.199Z,1005.81
2019-03-01T03:49:09.188Z,1005.84
2019-03-01T03:50:09.190Z,1005.89
2019-03-01T03:51:09.172Z,1005.86
2019-03-01T03:52:09.155Z,1005.88
2019-03-01T03:53:09.149Z,1005.83
2019-03-01T03:54:09.174Z,1005.79
2019-03-01T03:55:09.138Z,1005.78
2019-03-01T03:56:09.114Z,1005.80
2019-03-01T03:57:09.102Z,1005.79
2019-03-01T03:58:09.092Z,1005.79
2019-03-01T03:59:09.083Z,1005.72
2019-03-01T04:00:09.084Z,1005.75
2019-03-01T04:01:09.076Z,1005.77
2019-03-01T04:02:09.047Z,1005.72
2019-03-01T04:03:09.034Z,1005.67
2019-03-01T04:04:09.032Z,1005.63
2019-03-01T04:05:09.039Z,1005.65
2019-03-01T04:06:09.004Z,1005.68
2019-03-01T04:07:08.995Z,1005.63
2019-03-01T04:08:08.983Z,1005.65
2019-03-01T04:09:08.978Z,1005.65
2019-03-01T04:10:08.980Z,1005.64
2019-03-01T04:11:08.957Z,1005.67
2019-03-01T04:12:08.938Z,1005.65
2019-03-01T04:13:08.932Z,1005.64
2019-03-01T04:14:08.922Z,1005.68
2019-03-01T04:15:08.939Z,1005.68
2019-03-01T04:16:08.898Z,1005.68
2019-03-01T04:17:08.898Z,1005.64
2019-03-01T04:18:08.878Z,1005.62
2019-03-01T04:19:08.874Z,1005.59
2019-03-01T04:20:08.861Z,1005.63
2019-03-01T04:21:08.865Z,1005.55
2019-03-01T04:22:08.839Z,1005.55
2019-03-01T04:23:08.835Z,1005.60
2019-03-01T04:24:08.824Z,1005.51
2019-03-01T04:25:08.810Z,1005.51
2019-03-01T04:26:08.809Z,1005.49
2019-03-01T04:27:08.785Z,1005.49
2019-03-01T04:28:08.776Z,1005.51
2019-03-01T04:29:08.765Z,1005.52
2019-03-01T04:30:08.761Z,1005.48
2019-03-01T04:31:08.829Z,1005.40
2019-03-01T04:32:08.731Z,1005.41
2019-03-01T04:33:08.723Z,1005.35
2019-03-01T04:34:08.709Z,1005.33
2019-03-01T04:35:08.700Z,1005.33
2019-03-01T04:36:08.706Z,1005.32
2019-03-01T04:37:08.684Z,1005.29
2019-03-01T04:38:08.668Z,1005.28
2019-03-01T04:39:08.660Z,1005.27
2019-03-01T04:40:08.656Z,1005.29
2019-03-01T04:41:08.676Z,1005.29
2019-03-01T04:42:08.626Z,1005.24
2019-03-01T04:43:08.614Z,1005.21
2019-03-01T04:44:08.621Z,1005.20
2019-03-01T04:45:08.599Z,1005.14
2019-03-01T04:46:08.603Z,1005.13
2019-03-01T04:47:08.580Z,1005.12
2019-03-01T04:48:08.561Z,1005.14
2019-03-01T04:49:08.550Z,1005.06
2019-03-01T04:50:08.548Z,1005.12
2019-03-01T04:51:08.556Z,1005.07
2019-03-01T04:52:08.519Z,1005.13
2019-03-01T04:53:08.517Z,1005.08
2019-03-01T04:54:08.499Z,1005.06
2019-03-01T04:55:08.489Z,1005.05
2019-03-01T04:56:08.481Z,1005.06
2019-03-01T04:57:08.488Z,1004.98
2019-03-01T04:58:08.459Z,1004.99
2019-03-01T04:59:08.448Z,1005.02
2019-03-01T05:00:08.440Z,1004.97
2019-03-01T05:01:08.430Z,1005.02
2019-03-01T05:02:08.430Z,1004.94
2019-03-01T05:03:08.408Z,1004.98
2019-03-01T05:04:08.397Z,1004.98
2019-03-01T05:05:08.381Z,1004.92
2019-03-01T05:06:08.375Z,1004.86
2019-03-01T05:07:08.382Z,1004.89
2019-03-01T05:08:08.350Z,1004.86
2019-03-01T05:09:08.342Z,1004.92
2019-03-01T05:10:08.329Z,1004.94
2019-03-01T05:11:08.322Z,1004.94
2019-03-01T05:12:08.335Z,1004.93
2019-03-01T05:13:08.302Z,1004.89
2019-03-01T05:14:08.289Z,1004.82
2019-03-01T05:15:08.277Z,1004.82
2019-03-01T05:16:08.276Z,1004.79
2019-03-01T05:17:08.267Z,1004.76
2019-03-01T05:18:08.244Z,1004.81
2019-03-01T05:19:08.236Z,1004.74
2019-03-01T05:20:08.226Z,1004.77
2019-03-01T05:21:08.216Z,1004.80
2019-03-01T05:22:08.253Z,1004.80
2019-03-01T05:23:08.196Z,1004.78
2019-03-01T05:24:08.185Z,1004.83
2019-03-01T05:25:08.180Z,1004.89
2019-03-01T05:26:08.161Z,1004.91
2019-03-01T05:27:08.173Z,1004.91
2019-03-01T05:28:08.139Z,1004.94
2019-03-01T05:29:08.131Z,1005.01
2019-03-01T05:30:08.135Z,1004.98
2019-03-01T05:31:08.109Z,1005.00
2019-03-01T05:32:08.113Z,1005.00
2019-03-01T05:33:08.090Z,1005.00
2019-03-01T05:34:08.073Z,1005.01
2019-03-01T05:35:08.071Z,1004.99
2019-03-01T05:36:08.063Z,1004.98
2019-03-01T05:37:08.066Z,1004.99
2019-03-01T05:38:08.033Z,1004.95
2019-03-01T05:39:08.019Z,1004.94
2019-03-01T05:40:08.011Z,1004.98
2019-03-01T05:41:08.000Z,1005.00
2019-03-01T05:42:07.991Z,1004.99
2019-03-01T05:43:07.997Z,1004.98
2019-03-01T05:44:07.968Z,1004.97
2019-03-01T05:45:07.959Z,1005.02
2019-03-01T05:46:07.945Z,1005.03
2019-03-01T05:47:07.937Z,1005.04
2019-03-01T05:48:07.942Z,1005.00
2019-03-01T05:49:07.916Z,1005.02
2019-03-01T05:50:07.924Z,1005.04
2019-03-01T05:51:07.895Z,1005.02
2019-03-01T05:52:07.886Z,1004.98
2019-03-01T05:53:07.890Z,1004.97
2019-03-01T05:54:07.862Z,1004.93
2019-03-01T05:55:07.852Z,1004.99
2019-03-01T05:56:07.843Z,1004.92
2019-03-01T05:57:07.843Z,1005.00
2019-03-01T05:58:16.313Z,1004.98
2019-03-01T05:59:08.816Z,1004.98
2019-03-01T06:00:07.804Z,1005.02
2019-03-01T06:01:07.791Z,1005.02
2019-03-01T06:02:07.778Z,1005.04
2019-03-01T06:03:07.784Z,1004.98
2019-03-01T06:04:09.229Z,1005.03
2019-03-01T06:05:07.766Z,1004.95
2019-03-01T06:06:07.738Z,1005.03
2019-03-01T06:07:07.728Z,1005.01
2019-03-01T06:08:07.731Z,1005.01
2019-03-01T06:09:07.708Z,1005.02
2019-03-01T06:10:07.708Z,1004.98
2019-03-01T06:11:07.685Z,1004.97
2019-03-01T06:12:07.675Z,1004.97
2019-03-01T06:13:07.680Z,1004.99
2019-03-01T06:14:07.654Z,1005.00
2019-03-01T06:15:07.646Z,1004.97
2019-03-01T06:16:07.638Z,1005.00
2019-03-01T06:17:07.620Z,1005.11
2019-03-01T06:18:07.628Z,1005.04
2019-03-01T06:19:07.606Z,1005.04
2019-03-01T06:20:07.595Z,1005.06
2019-03-01T06:21:07.582Z,1005.03
2019-03-01T06:22:07.566Z,1005.02
2019-03-01T06:23:07.570Z,1005.04
2019-03-01T06:24:07.543Z,1005.05
2019-03-01T06:25:07.537Z,1005.07
2019-03-01T06:26:07.516Z,1005.10
2019-03-01T06:27:07.522Z,1005.05
2019-03-01T06:28:07.517Z,1005.05
2019-03-01T06:29:07.486Z,1005.02
2019-03-01T06:30:07.476Z,1005.04
2019-03-01T06:31:07.463Z,1004.98
2019-03-01T06:32:07.457Z,1005.02
2019-03-01T06:33:07.465Z,1004.99
2019-03-01T06:34:07.439Z,1004.98
2019-03-01T06:35:07.424Z,1005.00
2019-03-01T06:36:07.413Z,1004.96
2019-03-01T06:37:07.402Z,1004.98
2019-03-01T06:38:07.441Z,1005.03
2019-03-01T06:39:07.383Z,1005.03
2019-03-01T06:40:07.372Z,1005.15
2019-03-01T06:41:07.361Z,1005.13
2019-03-01T06:42:07.348Z,1005.17
2019-03-01T06:43:07.340Z,1005.19
2019-03-01T06:44:07.355Z,1005.14
2019-03-01T06:45:07.312Z,1005.15
2019-03-01T06:46:07.308Z,1005.13
2019-03-01T06:47:07.298Z,1005.19
2019-03-01T06:48:07.286Z,1005.25
2019-03-01T06:49:07.298Z,1005.19
2019-03-01T06:50:07.275Z,1005.22
2019-03-01T06:51:07.256Z,1005.24
2019-03-01T06:52:07.250Z,1005.24
2019-03-01T06:53:07.242Z,1005.26
2019-03-01T06:54:07.238Z,1005.23
2019-03-01T06:55:07.216Z,1005.28
2019-03-01T06:56:07.200Z,1005.27
2019-03-01T06:57:07.193Z,1005.24
2019-03-01T06:58:07.187Z,1005.26
2019-03-01T06:59:07.187Z,1005.30
2019-03-01T07:00:07.166Z,1005.32
2019-03-01T07:01:07.164Z,1005.29
2019-03-01T07:02:07.154Z,1005.31
2019-03-01T07:03:07.134Z,1005.33
2019-03-01T07:04:07.149Z,1005.36
2019-03-01T07:05:07.156Z,1005.33
2019-03-01T07:06:07.097Z,1005.31
2019-03-01T07:07:07.084Z,1005.36
2019-03-01T07:08:07.075Z,1005.35
2019-03-01T07:09:07.066Z,1005.35
2019-03-01T07:10:07.069Z,1005.35
2019-03-01T07:11:07.045Z,1005.40
2019-03-01T07:12:07.033Z,1005.36
2019-03-01T07:13:07.022Z,1005.39
2019-03-01T07:14:07.024Z,1005.37
2019-03-01T07:15:08.737Z,1005.38
2019-03-01T07:16:06.989Z,1005.35
2019-03-01T07:17:06.984Z,1005.32
2019-03-01T07:18:06.973Z,1005.33
2019-03-01T07:19:06.966Z,1005.30
2019-03-01T07:20:08.613Z,1005.33
2019-03-01T07:21:06.935Z,1005.35
2019-03-01T07:22:06.932Z,1005.34
2019-03-01T07:23:06.916Z,1005.37
2019-03-01T07:24:06.994Z,1005.31
2019-03-01T07:25:06.914Z,1005.33
2019-03-01T07:26:06.887Z,1005.40
2019-03-01T07:27:06.875Z,1005.38
2019-03-01T07:28:06.867Z,1005.37
2019-03-01T07:29:06.857Z,1005.41
2019-03-01T07:30:06.865Z,1005.44
2019-03-01T07:31:07.176Z,1005.40
2019-03-01T07:32:06.828Z,1005.41
2019-03-01T07:33:06.812Z,1005.44
2019-03-01T07:34:06.797Z,1005.40
2019-03-01T07:35:06.809Z,1005.43
2019-03-01T07:36:06.777Z,1005.41
2019-03-01T07:37:06.764Z,1005.38
2019-03-01T07:38:06.762Z,1005.36
2019-03-01T07:39:06.741Z,1005.33
2019-03-01T07:40:06.758Z,1005.39
2019-03-01T07:41:06.730Z,1005.36
2019-03-01T07:42:06.713Z,1005.35
2019-03-01T07:43:07.723Z,1005.39
2019-03-01T07:44:06.696Z,1005.32
2019-03-01T07:45:06.707Z,1005.36
2019-03-01T07:46:06.672Z,1005.30
2019-03-01T07:47:06.673Z,1005.34
2019-03-01T07:48:06.647Z,1005.36
2019-03-01T07:49:06.643Z,1005.37
2019-03-01T07:50:06.629Z,1005.39
2019-03-01T07:51:06.638Z,1005.45
2019-03-01T07:52:06.622Z,1005.42
2019-03-01T07:53:06.602Z,1005.44
2019-03-01T07:54:06.590Z,1005.46
2019-03-01T07:55:06.582Z,1005.44
2019-03-01T07:56:06.581Z,1005.42
2019-03-01T07:57:06.556Z,1005.39
2019-03-01T07:58:06.552Z,1005.37
2019-03-01T07:59:06.536Z,1005.34
2019-03-01T08:00:06.534Z,1005.34
2019-03-01T08:01:06.534Z,1005.35
2019-03-01T08:02:06.515Z,1005.33
2019-03-01T08:03:06.498Z,1005.34
2019-03-01T08:04:06.484Z,1005.31
2019-03-01T08:05:06.478Z,1005.33
2019-03-01T08:06:06.480Z,1005.34
2019-03-01T08:07:06.456Z,1005.35
2019-03-01T08:08:06.440Z,1005.34
2019-03-01T08:09:06.432Z,1005.35
2019-03-01T08:10:06.418Z,1005.40
2019-03-01T08:11:06.425Z,1005.40
2019-03-01T08:12:07.443Z,1005.36
2019-03-01T08:13:06.399Z,1005.36
2019-03-01T08:14:06.378Z,1005.43
2019-03-01T08:15:08.460Z,1005.41
2019-03-01T08:16:06.394Z,1005.40
2019-03-01T08:17:06.362Z,1005.43
2019-03-01T08:18:08.395Z,1005.42
2019-03-01T08:19:06.329Z,1005.35
2019-03-01T08:20:06.323Z,1005.34
2019-03-01T08:21:10.060Z,1005.38
2019-03-01T08:22:06.300Z,1005.33
2019-03-01T08:23:06.287Z,1005.37
2019-03-01T08:24:07.655Z,1005.33
2019-03-01T08:25:06.261Z,1005.34
2019-03-01T08:26:06.277Z,1005.32
2019-03-01T08:27:09.822Z,1005.33
2019-03-01T08:28:06.238Z,1005.34
2019-03-01T08:29:06.229Z,1005.33
2019-03-01T08:30:06.928Z,1005.34
2019-03-01T08:31:06.230Z,1005.35
2019-03-01T08:32:06.189Z,1005.31
2019-03-01T08:33:07.800Z,1005.31
2019-03-01T08:34:06.166Z,1005.31
2019-03-01T08:35:06.181Z,1005.24
2019-03-01T08:36:06.992Z,1005.32
2019-03-01T08:37:08.165Z,1005.34
2019-03-01T08:38:06.124Z,1005.34
2019-03-01T08:39:07.015Z,1005.32
2019-03-01T08:40:06.100Z,1005.35
2019-03-01T08:41:06.525Z,1005.35
2019-03-01T08:42:06.095Z,1005.36
2019-03-01T08:43:11.730Z,1005.33
2019-03-01T08:44:07.056Z,1005.38
2019-03-01T08:45:06.041Z,1005.41
2019-03-01T08:46:09.546Z,1005.35
2019-03-01T08:47:06.039Z,1005.39
2019-03-01T08:48:06.008Z,1005.37
2019-03-01T08:49:06.742Z,1005.38
2019-03-01T08:50:05.995Z,1005.41
2019-03-01T08:51:05.991Z,1005.42
2019-03-01T08:52:05.981Z,1005.41
2019-03-01T08:53:05.987Z,1005.45
2019-03-01T08:54:05.962Z,1005.45
2019-03-01T08:55:05.940Z,1005.47
2019-03-01T08:56:05.932Z,1005.42
2019-03-01T08:57:05.945Z,1005.44
2019-03-01T08:58:06.982Z,1005.48
2019-03-01T08:59:05.902Z,1005.49
2019-03-01T09:00:05.887Z,1005.52
2019-03-01T09:01:08.308Z,1005.52
2019-03-01T09:02:05.883Z,1005.56
2019-03-01T09:03:05.849Z,1005.48
2019-03-01T09:04:05.846Z,1005.54
2019-03-01T09:05:08.735Z,1005.51
2019-03-01T09:06:05.823Z,1005.50
2019-03-01T09:07:05.834Z,1005.51
2019-03-01T09:08:05.812Z,1005.56
2019-03-01T09:09:05.794Z,1005.46
2019-03-01T09:10:05.777Z,1005.55
2019-03-01T09:11:09.181Z,1005.49
2019-03-01T09:12:05.773Z,1005.57
2019-03-01T09:13:05.751Z,1005.56
2019-03-01T09:14:05.748Z,1005.62
2019-03-01T09:15:07.331Z,1005.61
2019-03-01T09:16:05.717Z,1005.66
2019-03-01T09:17:05.729Z,1005.64
2019-03-01T09:18:05.695Z,1005.63
2019-03-01T09:19:05.689Z,1005.64
2019-03-01T09:20:05.675Z,1005.61
2019-03-01T09:21:06.240Z,1005.66
2019-03-01T09:22:05.682Z,1005.68
2019-03-01T09:23:20.846Z,1005.69
2019-03-01T09:24:06.627Z,1005.68
2019-03-01T09:25:07.538Z,1005.64
2019-03-01T09:26:05.613Z,1005.65
2019-03-01T09:27:05.661Z,1005.61
2019-03-01T09:28:05.599Z,1005.59
2019-03-01T09:29:05.584Z,1005.58
2019-03-01T09:30:05.566Z,1005.56
2019-03-01T09:31:05.585Z,1005.56
2019-03-01T09:32:05.548Z,1005.52
2019-03-01T09:33:05.556Z,1005.56
2019-03-01T09:34:06.299Z,1005.57
2019-03-01T09:35:08.169Z,1005.59
2019-03-01T09:36:05.503Z,1005.59
2019-03-01T09:37:05.507Z,1005.53
2019-03-01T09:38:07.673Z,1005.57
2019-03-01T09:39:05.472Z,1005.65
2019-03-01T09:40:06.051Z,1005.62
2019-03-01T09:41:05.490Z,1005.62
2019-03-01T09:42:06.329Z,1005.66
2019-03-01T09:43:05.455Z,1005.74
2019-03-01T09:44:05.423Z,1005.73
2019-03-01T09:45:05.407Z,1005.74
2019-03-01T09:46:05.419Z,1005.77
2019-03-01T09:47:05.397Z,1005.76
2019-03-01T09:48:08.577Z,1005.75
2019-03-01T09:49:06.363Z,1005.72
2019-03-01T09:50:05.357Z,1005.72
2019-03-01T09:51:07.348Z,1005.71
2019-03-01T09:52:05.332Z,1005.70
2019-03-01T09:53:05.347Z,1005.70
2019-03-01T09:54:06.506Z,1005.65
2019-03-01T09:55:05.597Z,1005.63
2019-03-01T09:56:05.294Z,1005.65
2019-03-01T09:57:05.285Z,1005.65
2019-03-01T09:58:05.300Z,1005.64
2019-03-01T09:59:05.263Z,1005.65
2019-03-01T10:00:05.256Z,1005.67
2019-03-01T10:01:05.247Z,1005.65
2019-03-01T10:02:05.232Z,1005.63
2019-03-01T10:03:05.218Z,1005.68
2019-03-01T10:04:05.223Z,1005.64
2019-03-01T10:05:05.205Z,1005.61
2019-03-01T10:06:05.199Z,1005.65
2019-03-01T10:07:05.176Z,1005.65
2019-03-01T10:08:05.166Z,1005.66
2019-03-01T10:09:05.193Z,1005.63
2019-03-01T10:10:05.145Z,1005.66
2019-03-01T10:11:05.133Z,1005.65
2019-03-01T10:12:05.125Z,1005.63
2019-03-01T10:13:05.117Z,1005.67
2019-03-01T10:14:05.127Z,1005.59
2019-03-01T10:15:05.100Z,1005.63
2019-03-01T10:16:05.082Z,1005.60
2019-03-01T10:17:05.082Z,1005.55
2019-03-01T10:18:05.073Z,1005.63
2019-03-01T10:19:05.064Z,1005.60
2019-03-01T10:20:05.040Z,1005.64
2019-03-01T10:21:05.032Z,1005.64
2019-03-01T10:22:05.017Z,1005.66
2019-03-01T10:23:05.005Z,1005.61
2019-03-01T10:24:05.007Z,1005.74
2019-03-01T10:25:04.983Z,1005.72
2019-03-01T10:26:04.979Z,1005.71
2019-03-01T10:27:04.961Z,1005.72
2019-03-01T10:28:04.953Z,1005.71
2019-03-01T10:29:04.972Z,1005.73
2019-03-01T10:30:04.929Z,1005.73
2019-03-01T10:31:04.932Z,1005.75
2019-03-01T10:32:04.911Z,1005.73
2019-03-01T10:33:04.901Z,1005.75
2019-03-01T10:34:04.908Z,1005.77
2019-03-01T10:35:04.879Z,1005.81
2019-03-01T10:36:04.876Z,1005.81
2019-03-01T10:37:04.861Z,1005.80
2019-03-01T10:38:04.850Z,1005.84
2019-03-01T10:39:04.850Z,1005.87
2019-03-01T10:40:04.824Z,1005.85
2019-03-01T10:41:04.819Z,1005.89
2019-03-01T10:42:04.806Z,1005.92
2019-03-01T10:43:04.793Z,1005.94
2019-03-01T10:44:04.805Z,1005.96
2019-03-01T10:45:04.795Z,1005.94
2019-03-01T10:46:04.766Z,1005.94
2019-03-01T10:47:04.756Z,1005.94
2019-03-01T10:48:04.740Z,1005.95
2019-03-01T10:49:04.730Z,1005.98
2019-03-01T10:50:04.752Z,1005.94
2019-03-01T10:51:04.732Z,1005.98
2019-03-01T10:52:04.703Z,1006.00
2019-03-01T10:53:04.690Z,1006.03
2019-03-01T10:54:04.680Z,1006.05
2019-03-01T10:55:04.681Z,1006.04
2019-03-01T10:56:04.656Z,1006.03
2019-03-01T10:57:04.642Z,1006.03
2019-03-01T10:58:04.641Z,1006.03
2019-03-01T10:59:04.630Z,1006.04
2019-03-01T11:00:04.626Z,1006.09
2019-03-01T11:01:04.608Z,1006.10
2019-03-01T11:02:04.588Z,1006.10
2019-03-01T11:03:04.621Z,1006.13
2019-03-01T11:04:04.570Z,1006.08
2019-03-01T11:05:04.577Z,1006.18
2019-03-01T11:06:04.566Z,1006.10
2019-03-01T11:07:04.533Z,1006.09
2019-03-01T11:08:04.524Z,1006.12
2019-03-01T11:09:04.527Z,1006.12
2019-03-01T11:10:04.524Z,1006.18
2019-03-01T11:11:04.494Z,1006.19
2019-03-01T11:12:04.484Z,1006.17
2019-03-01T11:13:04.468Z,1006.19
2019-03-01T11:14:04.461Z,1006.13
2019-03-01T11:15:04.459Z,1006.24
2019-03-01T11:16:04.442Z,1006.24
2019-03-01T11:17:04.435Z,1006.25
2019-03-01T11:18:04.422Z,1006.25
2019-03-01T11:19:04.407Z,1006.27
2019-03-01T11:20:04.419Z,1006.22
2019-03-01T11:21:04.384Z,1006.21
2019-03-01T11:22:04.375Z,1006.22
2019-03-01T11:23:04.366Z,1006.22
2019-03-01T11:24:04.355Z,1006.18
2019-03-01T11:25:04.355Z,1006.19
2019-03-01T11:26:04.336Z,1006.21
2019-03-01T11:27:12.659Z,1006.19
2019-03-01T11:28:05.315Z,1006.19
2019-03-01T11:29:04.300Z,1006.16
2019-03-01T11:30:04.311Z,1006.15
2019-03-01T11:31:04.282Z,1006.19
2019-03-01T11:32:04.271Z,1006.18
2019-03-01T11:33:04.264Z,1006.21
2019-03-01T11:34:04.241Z,1006.21
2019-03-01T11:35:04.236Z,1006.17
2019-03-01T11:36:04.241Z,1006.15
2019-03-01T11:37:04.213Z,1006.20
2019-03-01T11:38:04.203Z,1006.16
2019-03-01T11:39:04.193Z,1006.15
2019-03-01T11:40:04.181Z,1006.13
2019-03-01T11:41:05.348Z,1006.16
2019-03-01T11:42:04.584Z,1006.13
2019-03-01T11:43:04.843Z,1006.14
2019-03-01T11:44:04.844Z,1006.17
2019-03-01T11:45:04.843Z,1006.18
2019-03-01T11:46:04.141Z,1006.19
2019-03-01T11:47:04.107Z,1006.19
2019-03-01T11:48:04.110Z,1006.26
2019-03-01T11:49:04.104Z,1006.22
2019-03-01T11:50:04.083Z,1006.28
2019-03-01T11:51:04.078Z,1006.26
2019-03-01T11:52:04.068Z,1006.31
2019-03-01T11:53:04.072Z,1006.27
2019-03-01T11:54:04.067Z,1006.28
2019-03-01T11:55:04.029Z,1006.35
2019-03-01T11:56:04.042Z,1006.30
2019-03-01T11:57:04.007Z,1006.33
2019-03-01T11:58:03.992Z,1006.31
2019-03-01T11:59:03.982Z,1006.31
2019-03-01T12:00:03.976Z,1006.36
2019-03-01T12:01:03.979Z,1006.39
2019-03-01T12:02:03.945Z,1006.35
2019-03-01T12:03:03.945Z,1006.35
2019-03-01T12:04:03.928Z,1006.34
2019-03-01T12:05:03.922Z,1006.31